NCAR-RAP Real-Time Weather Data

Output produced by METARs form (08 May 2021  16:27 UTC)
found at http://weather.rap.ucar.edu/surface/
 
KEKO 081556Z AUTO VRB05KT 10SM CLR 08/M09 A3021 RMK AO2 SLP213 T00781089
KEKO 081456Z AUTO 21003KT 10SM CLR 05/M08 A3021 RMK AO2 SLP213 T00501078 50014
KEKO 081356Z AUTO 00000KT 10SM CLR 00/M09 A3021 RMK AO2 SLP217 T00001089
KEKO 081256Z AUTO 00000KT 10SM CLR M03/M09 A3019 RMK AO2 SLP210 T10331089
KEKO 081156Z AUTO 00000KT 10SM CLR M01/M09 A3016 RMK AO2 SLP194 T10111094 10100 21017 51012
KEKO 081056Z AUTO 00000KT 10SM CLR M01/M10 A3014 RMK AO2 SLP189 T10111100
KEKO 080956Z AUTO 00000KT 10SM CLR 01/M10 A3013 RMK AO2 SLP185 T00111100
KEKO 080856Z AUTO 11003KT 10SM CLR 03/M10 A3012 RMK AO2 SLP176 T00331100 53015
KEKO 080756Z AUTO 35006KT 10SM CLR 07/M11 A3010 RMK AO2 SLP166 T00721111 402280067
KEKO 080656Z AUTO 36009KT 10SM CLR 09/M10 A3008 RMK AO2 SLP160 T00891100
KEKO 080556Z AUTO 09005KT 10SM CLR 09/M10 A3007 RMK AO2 SLP150 T00941100 10217 20094 51030
KEKO 080456Z AUTO 08011G20KT 10SM CLR 11/M09 A3004 RMK AO2 SLP140 T01111089
KEKO 080356Z AUTO 03007G19KT 10SM CLR 13/M06 A3001 RMK AO2 SLP125 T01281056